createdAt,value
2018-09-01T15:30:39.591Z,1.83
2018-09-01T15:33:08.237Z,1.70
2018-09-01T15:35:36.606Z,1.50
2018-09-01T15:38:05.188Z,1.40
2018-09-01T17:03:44.113Z,1.67
2018-09-01T17:06:12.329Z,1.60
2018-09-01T17:08:40.453Z,1.60
2018-09-01T17:11:08.714Z,1.77
2018-09-01T17:13:37.070Z,2.00
2018-09-01T17:16:05.569Z,1.80
2018-09-01T17:18:33.832Z,1.93
2018-09-01T17:21:02.056Z,2.20
2018-09-01T17:23:30.304Z,1.87
2018-09-01T17:25:58.507Z,2.03
2018-09-01T17:28:26.774Z,1.87
2018-09-01T17:30:55.200Z,2.03
2018-09-01T17:33:23.488Z,1.60
2018-09-01T17:35:51.789Z,1.97
2018-09-01T17:38:20.128Z,1.40
2018-09-01T17:40:48.675Z,1.73
2018-09-01T17:43:16.913Z,1.97
2018-09-01T17:45:45.203Z,2.10
2018-09-01T17:48:13.382Z,1.93
2018-09-01T17:50:41.992Z,1.70
2018-09-01T17:53:10.436Z,1.97
2018-09-01T17:55:38.897Z,1.70
2018-09-01T17:58:07.112Z,1.83
2018-09-01T18:00:35.484Z,2.17
2018-09-01T18:03:03.664Z,2.33
2018-09-01T18:05:31.910Z,1.83
2018-09-01T18:08:00.115Z,1.93
2018-09-01T18:10:28.318Z,1.97
2018-09-01T18:12:56.551Z,2.00
2018-09-01T18:15:24.801Z,2.63
2018-09-01T18:17:53.169Z,2.40
2018-09-01T18:20:21.492Z,2.30
2018-09-01T18:22:49.805Z,2.77
2018-09-01T18:25:18.006Z,2.67
2018-09-01T18:27:46.311Z,3.20
2018-09-01T18:30:14.692Z,3.03
2018-09-01T18:32:43.254Z,2.90
2018-09-01T18:35:12.049Z,2.97
2018-09-01T18:37:40.628Z,3.00
2018-09-01T18:40:09.223Z,3.27
2018-09-01T18:42:37.526Z,3.00
2018-09-01T18:45:06.466Z,2.70
2018-09-01T18:47:34.735Z,2.83
2018-09-01T18:50:02.923Z,3.70
2018-09-01T18:52:31.312Z,3.00
2018-09-01T18:54:59.516Z,2.90
2018-09-01T18:57:27.680Z,3.10
2018-09-01T18:59:55.874Z,2.93
2018-09-01T19:02:24.324Z,2.87
2018-09-01T19:04:52.548Z,2.90
2018-09-01T19:07:20.669Z,2.80
2018-09-01T19:09:48.920Z,2.70
2018-09-01T19:12:17.098Z,2.80
2018-09-01T19:14:45.286Z,2.60
2018-09-01T19:17:13.573Z,4.00
2018-09-01T19:19:41.884Z,3.37
2018-09-01T19:22:10.038Z,3.03
2018-09-01T19:24:38.437Z,3.30
2018-09-01T19:27:06.776Z,3.07
2018-09-01T19:29:34.918Z,3.87
2018-09-01T19:32:03.278Z,3.20
2018-09-01T19:34:31.454Z,3.47
2018-09-01T19:36:59.652Z,3.70
2018-09-01T19:39:27.924Z,2.47
2018-09-01T19:41:56.174Z,3.20
2018-09-01T19:44:24.400Z,3.40
2018-09-01T19:46:52.660Z,4.03
2018-09-01T19:49:20.860Z,3.80
2018-09-01T19:51:49.118Z,4.30
2018-09-01T19:54:17.596Z,3.53
2018-09-01T19:56:45.925Z,5.70
2018-09-01T19:59:14.149Z,4.73
2018-09-01T20:01:42.486Z,4.10
2018-09-01T20:04:10.676Z,3.93
2018-09-01T20:06:39.209Z,4.30
2018-09-01T20:09:07.518Z,3.23
2018-09-01T20:11:36.796Z,3.57
2018-09-01T20:14:05.056Z,3.73
2018-09-01T20:16:33.186Z,4.20
2018-09-01T20:19:01.373Z,3.90
2018-09-01T20:21:29.550Z,4.03
2018-09-01T20:23:57.720Z,3.90
2018-09-01T20:26:25.918Z,4.17
2018-09-01T20:28:54.090Z,4.70
2018-09-01T20:31:22.284Z,4.17
2018-09-01T20:33:50.486Z,4.97
2018-09-01T20:36:20.918Z,4.20
2018-09-01T20:38:49.121Z,4.27
2018-09-01T20:41:17.360Z,4.80
2018-09-01T20:43:45.594Z,4.63
2018-09-01T20:46:13.764Z,4.73
2018-09-01T20:48:42.022Z,5.13
2018-09-01T20:51:10.233Z,5.43
2018-09-01T20:53:38.526Z,5.87
2018-09-01T20:56:06.750Z,5.93
2018-09-01T20:58:34.968Z,5.67
2018-09-01T21:01:03.385Z,4.93
2018-09-01T21:03:31.520Z,5.60
2018-09-01T21:05:59.971Z,4.90
2018-09-01T21:08:28.575Z,5.97
2018-09-01T21:10:57.165Z,5.33
2018-09-01T21:13:25.356Z,6.20
2018-09-01T21:15:53.585Z,6.17
2018-09-01T21:18:21.827Z,5.67
2018-09-01T21:20:49.998Z,5.80
2018-09-01T21:23:18.486Z,5.77
2018-09-01T21:25:46.899Z,6.00
2018-09-01T21:28:15.059Z,5.83
2018-09-01T21:30:43.863Z,6.20
2018-09-01T21:33:12.107Z,6.10
2018-09-01T21:35:40.384Z,5.93
2018-09-01T21:38:08.584Z,6.57
2018-09-01T21:40:36.962Z,6.23
2018-09-01T21:43:05.315Z,5.67
2018-09-01T21:45:33.533Z,6.40
2018-09-01T21:48:01.698Z,6.53
2018-09-01T21:50:29.927Z,6.90
2018-09-01T21:52:58.154Z,7.57
2018-09-01T21:55:26.350Z,6.77
2018-09-01T21:57:54.745Z,6.53
2018-09-01T22:00:23.201Z,6.83
2018-09-01T22:02:51.388Z,7.17
2018-09-01T22:05:19.746Z,7.60
2018-09-01T22:07:47.957Z,7.57
2018-09-01T22:10:16.222Z,7.80
2018-09-01T22:12:44.553Z,7.23
2018-09-01T22:15:12.961Z,7.73
2018-09-01T22:17:41.139Z,8.93
2018-09-01T22:20:09.288Z,9.37
2018-09-01T22:22:37.503Z,8.60
2018-09-01T22:25:05.816Z,9.80
2018-09-01T22:27:34.009Z,9.73
2018-09-01T22:30:02.244Z,11.60
2018-09-01T22:32:30.536Z,12.20
2018-09-01T22:34:58.705Z,12.27
2018-09-01T22:37:27.060Z,11.27
2018-09-01T22:39:55.647Z,13.57
2018-09-01T22:42:23.952Z,12.93
2018-09-01T22:44:52.129Z,11.60
2018-09-01T22:47:23.026Z,8.63
2018-09-01T22:49:51.166Z,8.97
2018-09-01T22:52:19.380Z,9.63
2018-09-01T22:54:47.717Z,10.47
2018-09-01T22:57:15.929Z,9.07
2018-09-01T22:59:44.133Z,8.83
2018-09-01T23:02:12.376Z,7.90
2018-09-01T23:04:40.564Z,7.93
2018-09-01T23:07:08.838Z,7.43
2018-09-01T23:09:37.147Z,6.67
2018-09-01T23:12:05.383Z,6.67
2018-09-01T23:14:33.575Z,6.80
2018-09-01T23:17:01.715Z,7.60
2018-09-01T23:19:29.955Z,6.17
2018-09-01T23:21:58.341Z,6.37
2018-09-01T23:24:26.652Z,7.70
2018-09-01T23:26:54.831Z,7.57
2018-09-01T23:29:23.028Z,7.43
2018-09-01T23:31:51.235Z,8.73
2018-09-01T23:34:19.518Z,8.37
2018-09-01T23:36:47.708Z,8.07
2018-09-01T23:39:15.874Z,8.37
2018-09-01T23:41:44.115Z,7.77
2018-09-01T23:44:12.337Z,7.67
2018-09-01T23:46:40.571Z,7.03
2018-09-01T23:49:08.924Z,6.17
2018-09-01T23:51:37.140Z,7.60
2018-09-01T23:54:05.363Z,7.67
2018-09-01T23:56:33.569Z,6.97
2018-09-01T23:59:01.903Z,7.43
